Arlington, KS

11:10 AM CST on February 14, 2016 (GMT -0600)
Huntsville | | Change Station
CLOSE
Current Station
Personal Weather Station
Location: Sterling, KS
Elevation: 1762 ft
Nearby Weather Stations

Elev 1762 ft 38.09 °N, 98.33 °W | Updated 18 seconds ago

Clear
Clear
49.8 °F
Feels Like 50 °F
N
1.3
Wind Variable Wind from NE
Gusts 2.5 mph

Today
High -- | Low -- °F
--% Chance of Precip.
Yesterday
High -- | Low -- °F
Precip. -- in
Pressure 29.97 in
Visibility 10.0 miles
Clouds Clear
Windchill 50 °F
Dew Point 9 °F
Humidity 19%
Rainfall 0.00 in
Snow Depth Not available.
7:24 AM 6:10 PM
Waxing Crescent, 43% visible
METAR KHUT 141652Z 29005KT 10SM CLR 06/M07 A2996 RMK AO2 SLP149 T00561067
Pressure 29.97 in
Visibility 10.0 miles
Clouds Clear
Windchill 50 °F
Dew Point 9 °F
Humidity 19%
Rainfall 0.00 in
Snow Depth Not available.
7:24 AM 6:10 PM
Waxing Crescent, 43% visible
METAR KHUT 141652Z 29005KT 10SM CLR 06/M07 A2996 RMK AO2 SLP149 T00561067

10-Day Weather Forecast

Almanac

Astronomy

Feb. 14, 2016 Rise Set
Actual Time
Civil Twilight
Nautical Twilight
Astronomical Twilight
Moon
Length of Visible Light
Length of Day
Tomorrow will be .
, % of the Moon is Illuminated

Today's Extremes

State Highs State Lows

Community

WunderPhotos

Upload Photos

1,892,849 photos uploaded!

WunderBlog® & News

Nearby

Air Quality

  Air Quality AQ Index Pollutant
Not available.

Snow Depth

Station Depth Elevation

Earthquake Activity

City Distance Mag. Time & Date
Minimum magnitude displayed is 2.5.

Coastal Water Temperatures

Place Temperature

Stations

Nearby Weather Stations

Station Location Temp. Windchill Dew Point Humidity Wind Precip. Elev Updated Type
                   

Watches & Warnings

There are currently no watches in effect.